createdAt,value
2018-08-18T00:00:21.159Z,3.53
2018-08-18T00:02:49.003Z,4.07
2018-08-18T00:05:17.950Z,3.47
2018-08-18T00:07:45.964Z,3.60
2018-08-18T00:10:15.769Z,3.50
2018-08-18T00:12:43.540Z,3.83
2018-08-18T00:15:11.407Z,4.07
2018-08-18T00:17:39.589Z,4.37
2018-08-18T00:20:23.643Z,3.73
2018-08-18T00:22:51.441Z,3.33
2018-08-18T00:25:19.305Z,3.80
2018-08-18T00:27:46.933Z,3.70
2018-08-18T00:30:20.329Z,3.93
2018-08-18T00:32:48.090Z,3.87
2018-08-18T00:35:15.926Z,3.53
2018-08-18T00:37:43.578Z,4.27
2018-08-18T00:40:11.886Z,3.00
2018-08-18T00:42:40.181Z,4.70
2018-08-18T00:45:09.731Z,3.83
2018-08-18T00:47:37.971Z,4.40
2018-08-18T00:50:06.245Z,3.90
2018-08-18T00:52:34.138Z,3.57
2018-08-18T00:55:02.231Z,3.73
2018-08-18T00:57:31.156Z,3.57
2018-08-18T00:59:59.071Z,3.70
2018-08-18T01:02:27.554Z,4.37
2018-08-18T01:05:01.476Z,4.13
2018-08-18T01:07:30.656Z,4.20
2018-08-18T01:09:58.958Z,4.37
2018-08-18T01:12:27.206Z,4.20
2018-08-18T01:14:55.545Z,3.90
2018-08-18T01:17:23.518Z,3.80
2018-08-18T01:19:51.650Z,5.10
2018-08-18T01:22:19.655Z,4.10
2018-08-18T01:24:49.145Z,3.80
2018-08-18T01:27:17.075Z,4.20
2018-08-18T01:29:49.521Z,3.87
2018-08-18T01:32:17.220Z,4.93
2018-08-18T01:34:44.844Z,4.27
2018-08-18T01:37:18.150Z,4.73
2018-08-18T01:39:46.242Z,4.03
2018-08-18T01:42:14.135Z,4.30
2018-08-18T01:44:41.875Z,4.80
2018-08-18T01:47:10.350Z,4.13
2018-08-18T01:49:38.261Z,3.73
2018-08-18T01:52:14.454Z,4.17
2018-08-18T01:54:42.443Z,3.73
2018-08-18T01:57:11.299Z,4.20
2018-08-18T01:59:42.126Z,3.53
2018-08-18T02:02:12.213Z,3.93
2018-08-18T02:04:40.345Z,4.70
2018-08-18T02:07:18.633Z,4.10
2018-08-18T02:09:46.696Z,3.30
2018-08-18T02:12:14.558Z,3.33
2018-08-18T02:14:42.781Z,4.50
2018-08-18T02:17:16.040Z,3.27
2018-08-18T02:19:43.828Z,3.90
2018-08-18T02:22:11.696Z,4.00
2018-08-18T02:24:39.540Z,3.20
2018-08-18T02:27:07.475Z,3.57
2018-08-18T02:29:35.320Z,3.50
2018-08-18T02:32:03.239Z,3.50
2018-08-18T02:34:31.174Z,3.40
2018-08-18T02:36:59.364Z,4.20
2018-08-18T02:39:27.194Z,3.53
2018-08-18T02:41:59.222Z,3.80
2018-08-18T02:44:27.590Z,3.73
2018-08-18T02:46:56.879Z,3.07
2018-08-18T02:49:26.751Z,3.27
2018-08-18T02:51:54.571Z,3.77
2018-08-18T02:54:22.392Z,3.23
2018-08-18T02:56:50.309Z,3.80
2018-08-18T02:59:18.177Z,4.00
2018-08-18T03:01:45.970Z,3.80
2018-08-18T03:04:14.610Z,3.00
2018-08-18T03:06:42.476Z,3.00
2018-08-18T03:09:11.552Z,2.97
2018-08-18T03:11:41.124Z,3.23
2018-08-18T03:14:09.175Z,3.50
2018-08-18T03:16:38.644Z,2.53
2018-08-18T03:19:06.525Z,2.40
2018-08-18T03:21:40.042Z,2.60
2018-08-18T03:24:22.203Z,3.50
2018-08-18T03:26:51.246Z,3.17
2018-08-18T03:29:19.821Z,2.90
2018-08-18T03:31:48.006Z,2.90
2018-08-18T03:34:16.153Z,3.10
2018-08-18T03:36:52.500Z,3.00
2018-08-18T03:39:27.471Z,2.57
2018-08-18T03:41:56.496Z,3.40
2018-08-18T03:44:24.149Z,2.30
2018-08-18T03:46:51.925Z,3.20
2018-08-18T03:49:20.097Z,2.63
2018-08-18T03:51:51.832Z,2.80
2018-08-18T03:54:19.806Z,2.60
2018-08-18T03:56:48.267Z,2.53
2018-08-18T03:59:16.037Z,2.03
2018-08-18T04:01:59.272Z,2.20
2018-08-18T04:04:30.458Z,2.50
2018-08-18T04:06:59.318Z,2.30
2018-08-18T04:09:28.280Z,3.17
2018-08-18T04:11:57.526Z,2.50
2018-08-18T04:14:43.707Z,2.40
2018-08-18T04:17:23.484Z,3.17
2018-08-18T04:19:51.255Z,2.40
2018-08-18T04:22:19.324Z,2.90
2018-08-18T04:24:47.936Z,2.30
2018-08-18T04:27:28.611Z,3.30
2018-08-18T04:29:56.282Z,2.73
2018-08-18T04:32:23.876Z,2.70
2018-08-18T04:34:51.559Z,3.27
2018-08-18T04:37:19.291Z,2.40
2018-08-18T04:39:47.025Z,3.10
2018-08-18T04:42:14.712Z,3.07
2018-08-18T04:44:43.192Z,2.80
2018-08-18T04:47:20.871Z,3.43
2018-08-18T04:49:48.528Z,2.73
2018-08-18T04:52:16.398Z,3.70
2018-08-18T04:54:44.130Z,2.60
2018-08-18T04:57:11.898Z,3.20
2018-08-18T04:59:39.742Z,3.80
2018-08-18T05:02:07.616Z,2.87
2018-08-18T05:04:35.361Z,3.13
2018-08-18T05:07:03.247Z,2.97
2018-08-18T05:09:31.686Z,3.13
2018-08-18T05:11:59.862Z,3.30
2018-08-18T05:14:27.635Z,3.10
2018-08-18T05:16:55.560Z,2.67
2018-08-18T05:19:23.265Z,2.57
2018-08-18T05:21:51.075Z,2.77
2018-08-18T05:24:25.521Z,2.40
2018-08-18T05:26:54.288Z,2.60
2018-08-18T05:29:22.304Z,2.60
2018-08-18T05:31:50.090Z,2.80
2018-08-18T05:34:17.828Z,2.30
2018-08-18T05:36:45.485Z,2.30
2018-08-18T05:39:13.277Z,2.40
2018-08-18T05:41:40.906Z,2.50
2018-08-18T05:44:08.692Z,2.10
2018-08-18T05:46:36.442Z,2.63
2018-08-18T05:49:12.752Z,3.10
2018-08-18T05:51:43.558Z,2.73
2018-08-18T05:54:15.796Z,2.80
2018-08-18T05:56:45.046Z,3.03
2018-08-18T05:59:12.908Z,2.47
2018-08-18T06:01:41.257Z,2.90
2018-08-18T06:04:12.365Z,2.90
2018-08-18T06:06:40.587Z,3.60
2018-08-18T06:09:11.410Z,2.30
2018-08-18T06:11:39.158Z,2.80
2018-08-18T06:14:08.138Z,2.33
2018-08-18T06:16:36.061Z,2.40
2018-08-18T06:19:04.240Z,2.27
2018-08-18T06:21:32.062Z,2.90
2018-08-18T06:23:59.879Z,3.17
2018-08-18T06:26:28.460Z,3.43
2018-08-18T06:28:57.048Z,3.30
2018-08-18T06:31:24.962Z,2.40
2018-08-18T06:33:52.863Z,2.70
2018-08-18T06:36:20.661Z,2.40
2018-08-18T06:38:48.451Z,2.57
2018-08-18T06:41:16.365Z,2.13
2018-08-18T06:43:43.890Z,2.57
2018-08-18T06:46:11.696Z,2.20
2018-08-18T06:48:39.507Z,2.13
2018-08-18T06:51:07.599Z,2.80
2018-08-18T06:53:41.344Z,2.10
2018-08-18T06:56:09.288Z,1.43
2018-08-18T06:58:36.957Z,1.70
2018-08-18T07:01:05.163Z,2.10
2018-08-18T07:03:37.861Z,1.80
2018-08-18T07:06:06.447Z,1.80
2018-08-18T07:08:40.939Z,1.73
2018-08-18T07:11:09.564Z,1.97
2018-08-18T07:13:37.488Z,1.30
2018-08-18T07:16:05.344Z,1.27
2018-08-18T07:18:34.846Z,1.60
2018-08-18T07:21:04.432Z,1.43
2018-08-18T07:23:32.548Z,1.40
2018-08-18T07:26:01.898Z,1.93
2018-08-18T07:28:29.700Z,1.33
2018-08-18T07:30:57.520Z,1.97
2018-08-18T07:33:25.546Z,1.53
2018-08-18T07:35:53.261Z,1.30
2018-08-18T07:38:20.901Z,1.40
2018-08-18T07:40:52.073Z,1.30
2018-08-18T07:43:22.901Z,1.40
2018-08-18T07:45:51.675Z,1.47
2018-08-18T07:48:19.545Z,1.97
2018-08-18T07:50:47.252Z,1.10
2018-08-18T07:53:15.185Z,1.40
2018-08-18T07:58:10.710Z,1.30
2018-08-18T08:03:08.380Z,1.17
2018-08-18T08:05:36.089Z,1.40
2018-08-18T08:10:31.178Z,1.40
2018-08-18T08:12:58.927Z,1.27
2018-08-18T08:15:26.887Z,1.10
2018-08-18T08:20:22.478Z,1.00
2018-08-18T09:07:06.959Z,1.20
2018-08-18T09:09:34.646Z,1.37
2018-08-18T09:12:02.452Z,1.53
2018-08-18T09:14:30.246Z,1.20
2018-08-18T09:16:57.972Z,1.37
2018-08-18T09:19:26.486Z,1.30
2018-08-18T09:21:56.835Z,1.57
2018-08-18T09:24:26.990Z,1.90
2018-08-18T09:27:03.472Z,1.30
2018-08-18T09:29:46.965Z,1.60
2018-08-18T09:32:15.768Z,1.60
2018-08-18T09:34:49.179Z,1.50
2018-08-18T09:37:17.048Z,1.70
2018-08-18T09:39:45.136Z,1.60
2018-08-18T09:42:13.989Z,1.33
2018-08-18T09:44:43.817Z,1.30
2018-08-18T09:47:11.874Z,1.80
2018-08-18T09:49:39.589Z,1.77
2018-08-18T09:52:08.173Z,1.50
2018-08-18T09:54:36.127Z,1.23
2018-08-18T09:57:03.881Z,1.30
2018-08-18T09:59:32.060Z,1.10
2018-08-18T10:02:00.226Z,1.50
2018-08-18T10:04:28.229Z,1.70
2018-08-18T10:06:56.215Z,1.20
2018-08-18T10:09:24.723Z,1.53
2018-08-18T10:11:52.825Z,2.10
2018-08-18T10:14:20.712Z,1.30
2018-08-18T10:16:48.828Z,1.37
2018-08-18T10:19:16.717Z,1.50
2018-08-18T10:21:45.419Z,1.83
2018-08-18T10:24:13.475Z,1.43
2018-08-18T10:26:45.548Z,1.33
2018-08-18T13:32:55.769Z,1.43
2018-08-18T13:35:23.884Z,1.40
2018-08-18T14:10:10.058Z,2.17
2018-08-18T14:12:39.008Z,1.40
2018-08-18T14:15:06.967Z,1.47
2018-08-18T14:17:40.673Z,2.00
2018-08-18T14:42:26.702Z,1.50
2018-08-18T14:49:59.516Z,2.20
2018-08-18T14:52:27.464Z,1.70
2018-08-18T14:54:55.413Z,2.10
2018-08-18T15:53:58.634Z,2.10
2018-08-18T16:01:24.596Z,1.70
2018-08-18T16:03:55.848Z,1.63
